Findhorn, United Kingdom
Current Conditions -  °F | °C
As of 7:50 AM on Sunday 23 Nov 2014 (Local Time) from EGQK Reporting Station
Scattered Clouds Scattered Clouds  
Wind Chill:   Ceiling: Unl
Heat Index:   Visibility: 6mi
Dew Point:   Wind: 9mph
Humidity: 81%   Direction: 220°SW
Pressure: 29.94"   Gusts: NA
Location:  57.66°N, 3.61°W
Report Text: EGQK 230750Z AUTO 22008KT 9999 SCT130/// 05/02 Q1014
Loading
Personal Weather Stations






























Interactive Weather Map New forecast layout! Learn more

10-Day Weather Forecast

Advertisements
Track Severe Weather on mobile